createdAt,value
2022-08-04T00:02:14.484Z,23.00
2022-08-04T00:05:32.561Z,23.00
2022-08-04T00:08:53.062Z,22.90
2022-08-04T00:12:03.292Z,22.90
2022-08-04T00:15:15.040Z,23.90
2022-08-04T00:18:27.731Z,22.80
2022-08-04T00:21:36.114Z,22.80
2022-08-04T00:24:42.484Z,23.30
2022-08-04T00:27:46.749Z,22.80
2022-08-04T00:30:51.730Z,23.40
2022-08-04T00:33:56.472Z,22.80
2022-08-04T00:37:00.221Z,22.80
2022-08-04T00:40:24.182Z,22.80
2022-08-04T00:43:33.985Z,22.80
2022-08-04T00:47:13.686Z,22.80
2022-08-04T00:50:29.232Z,22.80
2022-08-04T00:53:49.972Z,22.80
2022-08-04T00:57:33.826Z,22.20
2022-08-04T01:00:47.954Z,22.70
2022-08-04T01:04:03.535Z,24.40
2022-08-04T01:07:50.592Z,22.70
2022-08-04T01:11:09.459Z,22.60
2022-08-04T01:14:37.595Z,23.50
2022-08-04T01:18:00.169Z,22.50
2022-08-04T01:21:32.437Z,22.50
2022-08-04T01:25:04.922Z,22.40
2022-08-04T01:28:31.357Z,22.30
2022-08-04T01:31:51.479Z,22.20
2022-08-04T01:35:21.590Z,22.90
2022-08-04T01:38:30.373Z,22.90
2022-08-04T01:41:33.809Z,22.00
2022-08-04T01:44:41.551Z,22.00
2022-08-04T01:47:52.981Z,21.90
2022-08-04T01:50:59.798Z,21.90
2022-08-04T01:54:03.262Z,21.80
2022-08-04T01:57:38.400Z,21.70
2022-08-04T02:00:31.610Z,21.70
2022-08-04T02:04:19.482Z,21.70
2022-08-04T02:07:20.981Z,20.60
2022-08-04T02:10:31.912Z,21.70
2022-08-04T02:13:51.449Z,21.70
2022-08-04T02:16:55.823Z,21.30
2022-08-04T02:20:09.971Z,21.70
2022-08-04T02:23:20.763Z,23.00
2022-08-04T02:26:29.831Z,21.70
2022-08-04T02:29:45.224Z,20.50
2022-08-04T02:32:51.732Z,21.70
2022-08-04T02:36:03.215Z,21.70
2022-08-04T02:39:09.012Z,23.70
2022-08-04T02:42:14.119Z,21.60
2022-08-04T02:45:23.998Z,21.60
2022-08-04T02:48:31.686Z,21.60
2022-08-04T02:51:38.686Z,21.60
2022-08-04T02:54:45.811Z,21.60
2022-08-04T02:57:50.732Z,21.60
2022-08-04T03:00:54.011Z,21.60
2022-08-04T03:04:25.455Z,21.60
2022-08-04T03:08:36.128Z,21.60
2022-08-04T03:12:22.744Z,21.60
2022-08-04T03:16:23.232Z,21.60
2022-08-04T03:20:22.214Z,21.50
2022-08-04T03:24:20.035Z,21.50
2022-08-04T03:28:05.920Z,21.50
2022-08-04T03:31:41.831Z,21.50
2022-08-04T03:35:13.593Z,21.40
2022-08-04T03:39:07.198Z,21.40
2022-08-04T03:42:49.179Z,21.50
2022-08-04T03:46:40.864Z,21.60
2022-08-04T03:50:30.309Z,23.10
2022-08-04T03:53:48.720Z,21.10
2022-08-04T03:57:33.703Z,21.70
2022-08-04T04:00:48.020Z,21.80
2022-08-04T04:04:10.342Z,22.80
2022-08-04T04:08:18.640Z,22.00
2022-08-04T04:11:55.510Z,22.00
2022-08-04T04:15:27.592Z,22.20
2022-08-04T04:19:02.734Z,22.20
2022-08-04T04:22:31.574Z,22.20
2022-08-04T04:25:50.443Z,22.30
2022-08-04T04:29:22.725Z,22.30
2022-08-04T04:32:40.167Z,22.40
2022-08-04T04:36:01.226Z,22.50
2022-08-04T04:39:16.855Z,22.60
2022-08-04T04:42:44.735Z,22.60
2022-08-04T04:46:04.732Z,23.50
2022-08-04T04:49:23.457Z,22.70
2022-08-04T04:52:41.431Z,22.40
2022-08-04T04:55:53.297Z,24.70
2022-08-04T04:58:59.840Z,22.70
2022-08-04T05:02:37.856Z,22.90
2022-08-04T05:06:17.657Z,23.10
2022-08-04T05:09:40.803Z,23.20
2022-08-04T05:14:36.277Z,23.30
2022-08-04T05:16:47.422Z,23.50
2022-08-04T05:20:02.087Z,23.90
2022-08-04T05:23:14.490Z,24.30
2022-08-04T05:26:27.085Z,24.90
2022-08-04T05:29:36.389Z,25.50
2022-08-04T05:32:49.022Z,26.20
2022-08-04T05:36:18.660Z,26.80
2022-08-04T05:39:31.060Z,27.20
2022-08-04T05:42:41.225Z,27.60
2022-08-04T05:45:48.592Z,28.00
2022-08-04T05:48:53.340Z,28.00
2022-08-04T05:52:02.458Z,28.20
2022-08-04T05:55:08.626Z,28.40
2022-08-04T05:58:13.674Z,28.70
2022-08-04T06:01:19.992Z,29.20
2022-08-04T06:04:26.327Z,29.50
2022-08-04T06:07:31.183Z,29.80
2022-08-04T06:10:39.478Z,30.00
2022-08-04T06:13:51.667Z,28.70
2022-08-04T06:16:56.539Z,30.60
2022-08-04T06:20:19.956Z,30.30
2022-08-04T06:23:35.949Z,30.80
2022-08-04T06:26:58.143Z,30.70
2022-08-04T06:30:05.374Z,31.00
2022-08-04T06:33:24.565Z,31.20
2022-08-04T06:36:28.678Z,31.10
2022-08-04T06:39:35.057Z,31.60
2022-08-04T06:42:39.840Z,31.80
2022-08-04T06:45:45.616Z,31.90
2022-08-04T06:48:50.832Z,32.00
2022-08-04T06:51:56.821Z,32.20
2022-08-04T06:55:01.802Z,32.30
2022-08-04T06:58:07.071Z,32.40
2022-08-04T07:01:13.935Z,32.60
2022-08-04T07:04:17.822Z,32.70
2022-08-04T07:07:36.647Z,32.90
2022-08-04T07:10:47.415Z,33.00
2022-08-04T07:13:51.679Z,33.10
2022-08-04T07:16:56.423Z,33.20
2022-08-04T07:19:59.687Z,34.60
2022-08-04T07:23:03.590Z,33.20
2022-08-04T07:26:12.650Z,33.10
2022-08-04T07:29:17.300Z,33.00
2022-08-04T07:32:22.820Z,32.90
2022-08-04T07:36:10.191Z,32.80
2022-08-04T07:38:51.831Z,32.70
2022-08-04T07:41:57.244Z,32.50
2022-08-04T07:45:01.203Z,30.90
2022-08-04T07:48:06.940Z,31.80
2022-08-04T07:51:10.595Z,31.50
2022-08-04T07:54:14.078Z,31.10
2022-08-04T07:57:41.555Z,30.70
2022-08-04T08:00:48.298Z,30.40
2022-08-04T08:03:54.732Z,30.00
2022-08-04T08:06:59.226Z,29.80
2022-08-04T08:10:02.560Z,29.60
2022-08-04T08:13:09.687Z,29.40
2022-08-04T08:16:14.014Z,29.30
2022-08-04T08:19:17.692Z,29.20
2022-08-04T08:22:20.834Z,29.10
2022-08-04T08:25:24.280Z,29.00
2022-08-04T08:28:29.808Z,29.00
2022-08-04T08:31:55.647Z,28.90
2022-08-04T08:34:56.606Z,28.80
2022-08-04T08:38:07.853Z,28.80
2022-08-04T08:42:05.781Z,28.70
2022-08-04T08:45:57.872Z,28.70
2022-08-04T08:50:02.745Z,28.70
2022-08-04T08:53:33.125Z,28.70
2022-08-04T08:56:53.976Z,28.70
2022-08-04T09:00:10.583Z,28.70
2022-08-04T09:03:43.058Z,28.70
2022-08-04T09:07:06.940Z,28.70
2022-08-04T09:10:21.459Z,28.70
2022-08-04T09:13:33.715Z,28.80
2022-08-04T09:16:46.004Z,28.60
2022-08-04T09:19:59.042Z,28.60
2022-08-04T09:23:17.155Z,28.60
2022-08-04T09:26:32.772Z,28.50
2022-08-04T09:29:48.353Z,28.40
2022-08-04T09:33:11.732Z,28.40
2022-08-04T09:36:30.528Z,28.40
2022-08-04T09:39:51.811Z,28.40
2022-08-04T09:43:10.668Z,28.40
2022-08-04T09:46:20.942Z,28.40
2022-08-04T09:49:39.533Z,28.40
2022-08-04T09:52:59.079Z,28.40
2022-08-04T09:56:11.437Z,28.40
2022-08-04T09:59:27.952Z,28.50
2022-08-04T10:02:38.526Z,28.50
2022-08-04T10:06:02.225Z,28.50
2022-08-04T10:09:40.205Z,28.60
2022-08-04T10:13:15.211Z,28.60
2022-08-04T10:16:41.572Z,28.60
2022-08-04T10:19:47.216Z,28.70
2022-08-04T10:23:14.988Z,28.70
2022-08-04T10:26:33.088Z,28.70
2022-08-04T10:29:46.663Z,28.70
2022-08-04T10:32:59.793Z,28.60
2022-08-04T10:36:07.452Z,28.50
2022-08-04T10:39:43.110Z,28.40
2022-08-04T10:43:22.520Z,28.30
2022-08-04T10:46:36.004Z,28.10
2022-08-04T10:49:47.265Z,27.90
2022-08-04T10:53:09.388Z,27.70
2022-08-04T10:56:23.446Z,27.60
2022-08-04T10:59:39.718Z,27.50
2022-08-04T11:02:53.228Z,27.60
2022-08-04T11:05:59.112Z,27.60
2022-08-04T11:09:04.608Z,27.60
2022-08-04T11:12:17.627Z,27.70
2022-08-04T11:15:26.834Z,27.70
2022-08-04T11:18:43.821Z,27.70
2022-08-04T11:21:56.453Z,27.70
2022-08-04T11:25:13.819Z,27.70
2022-08-04T11:28:36.870Z,27.60
2022-08-04T11:31:51.221Z,27.50
2022-08-04T11:35:06.335Z,27.50
2022-08-04T11:38:21.188Z,27.40
2022-08-04T11:41:48.042Z,27.20
2022-08-04T11:45:00.669Z,27.10
2022-08-04T11:48:11.684Z,27.00
2022-08-04T11:51:17.411Z,26.80
2022-08-04T11:54:41.722Z,26.70
2022-08-04T11:57:46.242Z,26.70
2022-08-04T12:01:11.467Z,26.60
2022-08-04T12:04:27.986Z,26.60
2022-08-04T12:07:51.434Z,26.50
2022-08-04T12:11:22.141Z,26.40
2022-08-04T12:14:40.947Z,28.50
2022-08-04T12:17:55.425Z,26.50
2022-08-04T12:21:09.843Z,26.50
2022-08-04T12:24:20.670Z,26.50
2022-08-04T12:27:31.003Z,26.50
2022-08-04T12:31:00.957Z,26.50
2022-08-04T12:34:16.244Z,26.50
2022-08-04T12:37:39.686Z,26.70
2022-08-04T12:40:50.122Z,26.50
2022-08-04T12:43:55.891Z,27.20
2022-08-04T12:47:26.334Z,26.50
2022-08-04T12:50:25.745Z,26.50
2022-08-04T12:53:35.544Z,26.60
2022-08-04T12:57:15.640Z,26.60
2022-08-04T13:00:32.142Z,26.70
2022-08-04T13:03:43.845Z,26.70
2022-08-04T13:06:59.192Z,26.80
2022-08-04T13:10:13.027Z,26.80
2022-08-04T13:13:26.570Z,26.80
2022-08-04T13:16:32.192Z,26.90
2022-08-04T13:19:41.599Z,27.00
2022-08-04T13:22:46.575Z,27.00
2022-08-04T13:26:43.023Z,27.10
2022-08-04T13:29:20.516Z,27.10
2022-08-04T13:32:26.247Z,27.10
2022-08-04T13:35:55.381Z,27.90
2022-08-04T13:38:59.303Z,27.20
2022-08-04T13:42:10.745Z,27.20
2022-08-04T13:45:17.139Z,27.30
2022-08-04T13:48:32.600Z,27.30
2022-08-04T13:51:58.277Z,27.40
2022-08-04T13:55:00.232Z,27.40
2022-08-04T13:58:12.170Z,27.50
2022-08-04T14:01:35.300Z,27.40
2022-08-04T14:04:51.823Z,27.40
2022-08-04T14:07:59.623Z,27.40
2022-08-04T14:11:02.975Z,27.40
2022-08-04T14:14:20.271Z,27.40
2022-08-04T14:17:29.915Z,27.40
2022-08-04T14:23:47.563Z,27.40
2022-08-04T14:26:52.781Z,27.40
2022-08-04T14:29:57.540Z,27.40
2022-08-04T14:33:59.669Z,27.40
2022-08-04T14:36:29.089Z,27.40
2022-08-04T14:39:40.934Z,27.50
2022-08-04T14:42:54.878Z,27.50
2022-08-04T14:46:07.100Z,27.50
2022-08-04T14:49:13.313Z,27.50
2022-08-04T14:52:25.632Z,27.60
2022-08-04T14:55:29.067Z,27.60
2022-08-04T14:58:39.363Z,27.60
2022-08-04T15:01:47.350Z,27.60
2022-08-04T15:06:00.318Z,27.70
2022-08-04T15:08:31.345Z,27.70
2022-08-04T15:11:40.143Z,27.70
2022-08-04T15:14:46.599Z,27.70
2022-08-04T15:17:53.044Z,27.70
2022-08-04T15:20:56.468Z,27.60
2022-08-04T15:24:00.171Z,27.60
2022-08-04T15:27:04.381Z,27.60
2022-08-04T15:30:12.027Z,27.60
2022-08-04T15:33:23.834Z,27.50
2022-08-04T15:36:57.156Z,27.40
2022-08-04T15:40:10.043Z,27.30
2022-08-04T15:43:44.968Z,27.20
2022-08-04T15:47:15.075Z,27.20
2022-08-04T15:50:28.250Z,27.10
2022-08-04T15:54:01.482Z,27.10
2022-08-04T15:57:01.665Z,27.00
2022-08-04T16:00:14.406Z,27.00
2022-08-04T16:03:57.892Z,26.90
2022-08-04T16:07:07.807Z,26.90
2022-08-04T16:10:38.993Z,26.90
2022-08-04T16:14:11.701Z,26.90
2022-08-04T16:17:19.651Z,26.80
2022-08-04T16:20:25.001Z,26.70
2022-08-04T16:24:19.520Z,26.70
2022-08-04T16:27:42.515Z,26.60
2022-08-04T16:30:45.769Z,26.60
2022-08-04T16:33:49.665Z,26.50
2022-08-04T16:37:14.282Z,26.50
2022-08-04T16:40:37.158Z,26.50
2022-08-04T16:43:41.146Z,26.60
2022-08-04T16:47:08.819Z,26.70
2022-08-04T16:50:09.632Z,26.70
2022-08-04T16:53:14.535Z,26.70
2022-08-04T16:56:37.799Z,26.70
2022-08-04T16:59:52.221Z,26.60
2022-08-04T17:02:56.123Z,26.60
2022-08-04T17:06:18.148Z,26.30
2022-08-04T17:09:24.437Z,26.20
2022-08-04T17:12:33.201Z,26.30
2022-08-04T17:15:36.696Z,26.10
2022-08-04T17:18:55.961Z,26.00
2022-08-04T17:22:06.308Z,25.90
2022-08-04T17:25:10.409Z,25.80
2022-08-04T17:28:29.400Z,25.80
2022-08-04T17:31:40.936Z,25.80
2022-08-04T17:34:48.617Z,25.90
2022-08-04T17:37:53.637Z,25.90
2022-08-04T17:41:19.518Z,25.90
2022-08-04T17:44:37.452Z,25.90
2022-08-04T17:47:51.513Z,25.90
2022-08-04T17:50:55.548Z,26.00
2022-08-04T17:54:02.542Z,26.10
2022-08-04T17:57:19.633Z,26.20
2022-08-04T18:00:24.992Z,26.20
2022-08-04T18:03:36.474Z,26.30
2022-08-04T18:06:39.591Z,26.40
2022-08-04T18:10:28.870Z,26.50
2022-08-04T18:13:29.597Z,26.60
2022-08-04T18:16:47.030Z,27.50
2022-08-04T18:19:55.475Z,26.70
2022-08-04T18:22:58.698Z,26.80
2022-08-04T18:26:03.725Z,26.80
2022-08-04T18:29:08.311Z,26.90
2022-08-04T18:32:33.191Z,26.90
2022-08-04T18:36:32.666Z,27.00
2022-08-04T18:39:12.942Z,26.90
2022-08-04T18:42:18.172Z,27.00
2022-08-04T18:45:21.743Z,26.90
2022-08-04T18:48:36.942Z,26.80
2022-08-04T18:51:54.333Z,26.80
2022-08-04T18:54:57.421Z,26.70
2022-08-04T18:58:07.076Z,26.60
2022-08-04T19:01:14.053Z,26.40
2022-08-04T19:04:36.781Z,26.40
2022-08-04T19:08:11.632Z,26.30
2022-08-04T19:11:37.001Z,26.20
2022-08-04T19:14:28.990Z,26.20
2022-08-04T19:17:53.904Z,26.10
2022-08-04T19:20:59.594Z,26.10
2022-08-04T19:24:26.333Z,26.00
2022-08-04T19:27:38.496Z,26.10
2022-08-04T19:30:44.419Z,26.20
2022-08-04T19:33:59.382Z,26.20
2022-08-04T19:37:09.486Z,26.30
2022-08-04T19:40:33.431Z,26.30
2022-08-04T19:43:37.283Z,26.40
2022-08-04T19:46:47.208Z,26.40
2022-08-04T19:50:05.232Z,26.40
2022-08-04T19:53:19.457Z,26.40
2022-08-04T19:56:25.803Z,26.40
2022-08-04T19:59:32.397Z,26.40
2022-08-04T20:03:11.386Z,26.40
2022-08-04T20:06:15.361Z,26.30
2022-08-04T20:09:26.598Z,26.20
2022-08-04T20:12:30.206Z,26.20
2022-08-04T20:15:33.868Z,26.10
2022-08-04T20:18:55.602Z,26.00
2022-08-04T20:22:01.798Z,25.90
2022-08-04T20:25:18.259Z,25.60
2022-08-04T20:28:36.774Z,25.60
2022-08-04T20:31:43.227Z,25.50
2022-08-04T20:34:47.893Z,25.50
2022-08-04T20:37:54.987Z,25.40
2022-08-04T20:41:06.099Z,25.20
2022-08-04T20:44:46.924Z,25.10
2022-08-04T20:47:53.217Z,24.90
2022-08-04T20:50:58.241Z,24.80
2022-08-04T20:54:16.158Z,24.70
2022-08-04T20:57:47.676Z,24.70
2022-08-04T21:00:46.160Z,24.60
2022-08-04T21:04:14.412Z,24.50
2022-08-04T21:07:30.627Z,24.50
2022-08-04T21:10:48.063Z,24.50
2022-08-04T21:13:52.941Z,24.40
2022-08-04T21:16:57.540Z,24.40
2022-08-04T21:20:01.626Z,24.40
2022-08-04T21:23:05.124Z,24.40
2022-08-04T21:26:10.844Z,24.40
2022-08-04T21:29:17.223Z,24.40
2022-08-04T21:32:20.799Z,24.30
2022-08-04T21:35:37.884Z,24.30
2022-08-04T21:38:51.802Z,24.20
2022-08-04T21:42:28.830Z,24.20
2022-08-04T21:45:21.527Z,24.10
2022-08-04T21:48:27.443Z,24.20
2022-08-04T21:51:58.659Z,24.10
2022-08-04T21:54:59.589Z,24.00
2022-08-04T21:58:04.006Z,23.90
2022-08-04T22:01:13.499Z,23.90
2022-08-04T22:04:35.674Z,25.70
2022-08-04T22:07:50.436Z,23.90
2022-08-04T22:10:54.488Z,23.80
2022-08-04T22:14:10.613Z,23.80
2022-08-04T22:17:18.216Z,23.70
2022-08-04T22:20:28.144Z,23.60
2022-08-04T22:23:45.039Z,23.60
2022-08-04T22:26:51.339Z,23.50
2022-08-04T22:30:17.281Z,23.50
2022-08-04T22:33:23.477Z,23.40
2022-08-04T22:36:47.301Z,23.30
2022-08-04T22:39:56.761Z,23.20
2022-08-04T22:43:03.047Z,23.20
2022-08-04T22:46:12.089Z,23.10
2022-08-04T22:49:18.383Z,23.00
2022-08-04T22:52:31.956Z,22.90
2022-08-04T22:56:07.270Z,22.90
2022-08-04T22:59:00.285Z,22.80
2022-08-04T23:02:03.508Z,22.70
2022-08-04T23:05:09.560Z,22.60
2022-08-04T23:08:12.972Z,22.60
2022-08-04T23:11:18.683Z,22.70
2022-08-04T23:14:49.191Z,22.50
2022-08-04T23:17:53.390Z,22.40
2022-08-04T23:20:58.272Z,22.40
2022-08-04T23:24:02.597Z,22.30
2022-08-04T23:27:06.307Z,22.30
2022-08-04T23:30:19.182Z,22.30
2022-08-04T23:33:22.260Z,22.20
2022-08-04T23:36:30.879Z,23.80
2022-08-04T23:39:42.169Z,22.10
2022-08-04T23:42:57.573Z,22.10
2022-08-04T23:46:06.646Z,22.00
2022-08-04T23:49:11.475Z,22.00
2022-08-04T23:52:28.243Z,22.00
2022-08-04T23:55:33.402Z,23.40
2022-08-04T23:58:36.576Z,22.00
